createdAt,value
2018-01-08T00:00:05.804Z,83.02
2018-01-08T00:00:46.385Z,83.02
2018-01-08T00:01:26.937Z,83.11
2018-01-08T00:02:07.517Z,83.11
2018-01-08T00:02:48.138Z,83.02
2018-01-08T00:03:28.720Z,83.11
2018-01-08T00:04:09.364Z,83.21
2018-01-08T00:04:49.932Z,83.3
2018-01-08T00:05:30.528Z,83.49
2018-01-08T00:06:11.085Z,83.21
2018-01-08T00:06:51.640Z,83.21
2018-01-08T00:07:32.213Z,83.4
2018-01-08T00:08:12.772Z,83.59
2018-01-08T00:08:53.366Z,83.59
2018-01-08T00:09:33.963Z,83.59
2018-01-08T00:10:14.541Z,83.59
2018-01-08T00:10:55.116Z,83.49
2018-01-08T00:11:35.703Z,83.49
2018-01-08T00:12:16.272Z,83.4
2018-01-08T00:12:56.838Z,83.21
2018-01-08T00:13:37.421Z,83.4
2018-01-08T00:14:17.986Z,83.11
2018-01-08T00:14:58.582Z,83.3
2018-01-08T00:15:39.148Z,83.02
2018-01-08T00:16:19.700Z,83.21
2018-01-08T00:17:00.297Z,83.11
2018-01-08T00:17:40.865Z,83.3
2018-01-08T00:18:21.433Z,83.4
2018-01-08T00:19:02.003Z,83.59
2018-01-08T00:19:42.576Z,83.4
2018-01-08T00:20:23.140Z,83.59
2018-01-08T00:21:03.691Z,83.4
2018-01-08T00:21:44.256Z,83.4
2018-01-08T00:22:24.844Z,83.3
2018-01-08T00:23:05.457Z,83.4
2018-01-08T00:23:46.012Z,83.68
2018-01-08T00:24:26.558Z,83.87
2018-01-08T00:25:07.114Z,84.06
2018-01-08T00:25:47.711Z,83.3
2018-01-08T00:26:28.279Z,83.87
2018-01-08T00:27:10.350Z,83.68
2018-01-08T00:27:50.920Z,83.3
2018-01-08T00:28:31.506Z,83.87
2018-01-08T00:29:12.126Z,83.68
2018-01-08T00:29:52.691Z,83.87
2018-01-08T00:30:33.252Z,84.16
2018-01-08T00:31:13.819Z,84.16
2018-01-08T00:31:54.385Z,84.06
2018-01-08T00:32:34.946Z,84.06
2018-01-08T00:33:15.524Z,83.97
2018-01-08T00:33:56.065Z,83.97
2018-01-08T00:34:36.629Z,83.78
2018-01-08T00:35:17.199Z,83.87
2018-01-08T00:35:57.772Z,84.25
2018-01-08T00:36:38.343Z,84.16
2018-01-08T00:37:18.905Z,83.97
2018-01-08T00:37:59.489Z,84.06
2018-01-08T00:38:40.057Z,83.87
2018-01-08T00:39:20.617Z,83.3
2018-01-08T00:40:01.184Z,84.06
2018-01-08T00:40:41.748Z,83.21
2018-01-08T00:41:22.407Z,83.68
2018-01-08T00:42:02.990Z,83.59
2018-01-08T00:42:43.613Z,83.68
2018-01-08T00:43:24.175Z,84.06
2018-01-08T00:44:04.739Z,84.25
2018-01-08T00:44:45.318Z,84.25
2018-01-08T00:45:25.891Z,83.87
2018-01-08T00:46:06.452Z,84.06
2018-01-08T00:46:47.055Z,83.97
2018-01-08T00:47:27.613Z,84.06
2018-01-08T00:48:08.190Z,83.97
2018-01-08T00:48:48.790Z,83.97
2018-01-08T00:49:29.367Z,83.97
2018-01-08T00:50:09.961Z,84.06
2018-01-08T00:50:50.567Z,83.97
2018-01-08T00:51:31.132Z,84.06
2018-01-08T00:52:11.707Z,84.16
2018-01-08T00:52:52.335Z,83.87
2018-01-08T00:53:32.918Z,83.49
2018-01-08T00:54:13.528Z,83.87
2018-01-08T00:54:54.146Z,83.87
2018-01-08T00:55:34.724Z,83.59
2018-01-08T00:56:15.348Z,83.97
2018-01-08T00:56:55.939Z,84.16
2018-01-08T00:57:36.531Z,83.59
2018-01-08T00:58:17.166Z,84.06
2018-01-08T00:58:57.733Z,83.21
2018-01-08T00:59:38.340Z,83.4
2018-01-08T01:00:18.930Z,83.49
2018-01-08T01:00:59.512Z,83.4
2018-01-08T01:01:40.107Z,83.21
2018-01-08T01:02:20.682Z,83.21
2018-01-08T01:03:01.291Z,83.3
2018-01-08T01:03:41.881Z,83.21
2018-01-08T01:04:22.507Z,83.4
2018-01-08T01:05:03.121Z,83.3
2018-01-08T01:05:43.711Z,83.21
2018-01-08T01:06:24.311Z,83.3
2018-01-08T01:07:04.939Z,83.4
2018-01-08T01:07:45.522Z,83.4
2018-01-08T01:08:26.117Z,83.02
2018-01-08T01:09:06.752Z,83.02
2018-01-08T01:09:47.362Z,82.92
2018-01-08T01:10:27.948Z,82.83
2018-01-08T01:11:08.568Z,82.92
2018-01-08T01:11:49.102Z,83.02
2018-01-08T01:12:29.696Z,82.83
2018-01-08T01:13:10.277Z,83.02
2018-01-08T01:13:50.884Z,82.92
2018-01-08T01:14:31.466Z,83.02
2018-01-08T01:15:12.130Z,83.59
2018-01-08T01:15:52.727Z,83.59
2018-01-08T01:16:33.307Z,83.4
2018-01-08T01:17:13.918Z,83.59
2018-01-08T01:17:54.502Z,83.4
2018-01-08T01:18:35.104Z,83.49
2018-01-08T01:19:15.704Z,83.59
2018-01-08T01:19:56.264Z,83.59
2018-01-08T01:20:36.826Z,83.4
2018-01-08T01:21:17.415Z,82.92
2018-01-08T01:21:58.004Z,83.11
2018-01-08T01:22:38.581Z,82.92
2018-01-08T01:23:19.180Z,83.11
2018-01-08T01:23:59.771Z,83.21
2018-01-08T01:24:40.379Z,83.21
2018-01-08T01:25:20.987Z,83.49
2018-01-08T01:26:01.594Z,83.59
2018-01-08T01:26:42.221Z,83.59
2018-01-08T01:27:22.832Z,83.59
2018-01-08T01:28:03.461Z,83.3
2018-01-08T01:28:44.057Z,83.4
2018-01-08T01:29:24.651Z,83.3
2018-01-08T01:30:05.247Z,83.4
2018-01-08T01:30:45.829Z,83.59
2018-01-08T01:31:26.409Z,83.49
2018-01-08T01:32:07.008Z,83.3
2018-01-08T01:32:47.572Z,83.3
2018-01-08T01:33:28.200Z,83.11
2018-01-08T01:34:08.774Z,83.3
2018-01-08T01:34:49.407Z,83.49
2018-01-08T01:35:29.984Z,83.59
2018-01-08T01:36:10.583Z,83.49
2018-01-08T01:36:51.174Z,83.49
2018-01-08T01:37:31.764Z,83.59
2018-01-08T01:38:12.368Z,83.59
2018-01-08T01:38:52.966Z,83.21
2018-01-08T01:39:33.603Z,83.49
2018-01-08T01:40:14.190Z,83.4
2018-01-08T01:40:54.782Z,83.3
2018-01-08T01:41:35.356Z,83.3
2018-01-08T01:42:15.928Z,83.68
2018-01-08T01:42:56.494Z,83.87
2018-01-08T01:43:37.086Z,83.59
2018-01-08T01:44:17.656Z,83.78
2018-01-08T01:44:58.214Z,83.68
2018-01-08T01:45:38.792Z,83.59
2018-01-08T01:46:19.370Z,83.87
2018-01-08T01:46:59.955Z,83.49
2018-01-08T01:47:40.547Z,83.59
2018-01-08T01:48:21.135Z,84.06
2018-01-08T01:49:01.737Z,84.06
2018-01-08T01:49:42.280Z,84.06
2018-01-08T01:50:22.869Z,83.87
2018-01-08T01:51:03.452Z,83.97
2018-01-08T01:51:44.031Z,84.06
2018-01-08T01:52:24.599Z,84.06
2018-01-08T01:53:05.177Z,83.97
2018-01-08T01:53:45.758Z,83.97
2018-01-08T01:54:26.343Z,84.06
2018-01-08T01:55:06.914Z,83.87
2018-01-08T01:55:50.475Z,84.06
2018-01-08T01:56:31.064Z,84.16
2018-01-08T01:57:11.647Z,83.87
2018-01-08T01:57:52.226Z,84.16
2018-01-08T01:58:32.809Z,83.68
2018-01-08T01:59:13.384Z,83.68
2018-01-08T01:59:53.954Z,83.87
2018-01-08T02:00:34.516Z,83.87
2018-01-08T02:01:15.071Z,83.97
2018-01-08T02:01:55.683Z,83.87
2018-01-08T02:02:36.245Z,84.34
2018-01-08T02:03:16.828Z,84.25
2018-01-08T02:03:57.421Z,84.25
2018-01-08T02:04:37.988Z,84.16
2018-01-08T02:05:18.549Z,84.34
2018-01-08T02:05:59.168Z,84.63
2018-01-08T02:06:39.744Z,84.44
2018-01-08T02:07:20.342Z,84.63
2018-01-08T02:08:00.920Z,84.81
2018-01-08T02:08:41.525Z,84.44
2018-01-08T02:09:22.139Z,84.72
2018-01-08T02:10:02.705Z,84.72
2018-01-08T02:10:43.286Z,84.63
2018-01-08T02:11:23.849Z,84.44
2018-01-08T02:12:04.402Z,84.81
2018-01-08T02:12:44.953Z,84.72
2018-01-08T02:13:25.517Z,84.81
2018-01-08T02:14:06.058Z,84.72
2018-01-08T02:14:46.629Z,84.72
2018-01-08T02:15:27.201Z,84.53
2018-01-08T02:16:07.767Z,84.44
2018-01-08T02:16:48.343Z,84.72
2018-01-08T02:17:28.912Z,84.72
2018-01-08T02:18:09.469Z,84.44
2018-01-08T02:18:50.019Z,84.25
2018-01-08T02:19:30.609Z,84.63
2018-01-08T02:20:11.174Z,84.44
2018-01-08T02:20:51.741Z,84.34
2018-01-08T02:21:32.355Z,84.44
2018-01-08T02:22:12.952Z,84.72
2018-01-08T02:22:53.529Z,84.34
2018-01-08T02:23:34.116Z,84.44
2018-01-08T02:24:14.695Z,84.44
2018-01-08T02:24:55.267Z,84.72
2018-01-08T02:25:35.836Z,84.81
2018-01-08T02:26:16.413Z,84.44
2018-01-08T02:26:56.973Z,84.63
2018-01-08T02:27:37.530Z,84.44
2018-01-08T02:28:18.104Z,84.63
2018-01-08T02:28:58.670Z,84.53
2018-01-08T02:29:39.228Z,84.44
2018-01-08T02:30:19.797Z,84.53
2018-01-08T02:31:00.369Z,84.72
2018-01-08T02:31:40.976Z,85
2018-01-08T02:32:21.538Z,84.91
2018-01-08T02:33:02.169Z,85
2018-01-08T02:33:42.744Z,84.72
2018-01-08T02:34:23.311Z,84.72
2018-01-08T02:35:03.871Z,84.63
2018-01-08T02:35:44.446Z,84.91
2018-01-08T02:36:25.042Z,85
2018-01-08T02:37:05.586Z,84.81
2018-01-08T02:37:46.178Z,84.53
2018-01-08T02:38:26.744Z,84.44
2018-01-08T02:39:07.308Z,84.81
2018-01-08T02:39:47.885Z,84.81
2018-01-08T02:40:28.445Z,84.63
2018-01-08T02:41:09.049Z,84.63
2018-01-08T02:41:49.617Z,84.72
2018-01-08T02:42:30.192Z,84.72
2018-01-08T02:43:10.768Z,84.44
2018-01-08T02:43:51.348Z,84.72
2018-01-08T02:44:31.909Z,84.34
2018-01-08T02:45:12.475Z,84.81
2018-01-08T02:45:53.051Z,84.63
2018-01-08T02:46:33.623Z,84.63
2018-01-08T02:47:14.194Z,84.53
2018-01-08T02:47:54.801Z,84.53
2018-01-08T02:48:35.374Z,84.53
2018-01-08T02:49:15.978Z,84.72
2018-01-08T02:49:56.548Z,84.34
2018-01-08T02:50:37.108Z,84.53
2018-01-08T02:51:17.701Z,84.81
2018-01-08T02:51:58.277Z,84.72
2018-01-08T02:52:38.905Z,84.34
2018-01-08T02:53:19.472Z,84.91
2018-01-08T02:54:00.048Z,84.63
2018-01-08T02:54:40.598Z,84.44
2018-01-08T02:55:21.158Z,84.44
2018-01-08T02:56:01.724Z,84.44
2018-01-08T02:56:42.311Z,84.53
2018-01-08T02:57:22.873Z,84.72
2018-01-08T02:58:03.463Z,84.53
2018-01-08T02:58:44.074Z,84.49
2018-01-08T02:59:24.657Z,84.72
2018-01-08T03:00:05.231Z,84.68
2018-01-08T03:00:45.815Z,84.96
2018-01-08T03:01:26.379Z,85.05
2018-01-08T03:02:06.955Z,85.15
2018-01-08T03:02:47.532Z,85
2018-01-08T03:03:28.098Z,84.96
2018-01-08T03:04:08.685Z,85.05
2018-01-08T03:04:49.235Z,85.1
2018-01-08T03:05:29.814Z,84.96
2018-01-08T03:06:10.407Z,84.96
2018-01-08T03:06:50.979Z,85.05
2018-01-08T03:07:31.548Z,85.19
2018-01-08T03:08:12.122Z,85.1
2018-01-08T03:08:52.701Z,85.1
2018-01-08T03:09:33.258Z,85.1
2018-01-08T03:10:13.810Z,85.1
2018-01-08T03:10:54.418Z,85
2018-01-08T03:11:34.999Z,85.1
2018-01-08T03:12:15.570Z,85.1
2018-01-08T03:12:56.125Z,85.15
2018-01-08T03:13:36.694Z,85.24
2018-01-08T03:14:17.262Z,85.15
2018-01-08T03:14:57.829Z,85.15
2018-01-08T03:15:38.389Z,85.1
2018-01-08T03:16:18.964Z,85.15
2018-01-08T03:16:59.538Z,85.28
2018-01-08T03:17:40.097Z,85.1
2018-01-08T03:18:20.656Z,85.1
2018-01-08T03:19:01.226Z,85.15
2018-01-08T03:19:41.784Z,85.1
2018-01-08T03:20:22.361Z,85.15
2018-01-08T03:21:02.943Z,85.05
2018-01-08T03:21:43.514Z,84.77
2018-01-08T03:22:24.084Z,84.86
2018-01-08T03:23:04.677Z,84.96
2018-01-08T03:23:45.243Z,84.81
2018-01-08T03:24:25.809Z,85
2018-01-08T03:25:06.373Z,85.15
2018-01-08T03:25:46.928Z,84.77
2018-01-08T03:26:27.498Z,84.96
2018-01-08T03:27:08.080Z,85.05
2018-01-08T03:27:48.640Z,85.43
2018-01-08T03:28:29.203Z,85.15
2018-01-08T03:29:09.766Z,84.77
2018-01-08T03:29:50.318Z,84.86
2018-01-08T03:30:30.905Z,85.15
2018-01-08T03:31:11.466Z,85.05
2018-01-08T03:31:52.037Z,84.96
2018-01-08T03:32:32.603Z,84.86
2018-01-08T03:33:13.163Z,85.05
2018-01-08T03:33:53.738Z,85.34
2018-01-08T03:34:34.298Z,85.15
2018-01-08T03:35:14.872Z,85.19
2018-01-08T03:35:55.467Z,85.05
2018-01-08T03:36:36.042Z,85.19
2018-01-08T03:37:16.595Z,84.96
2018-01-08T03:37:57.180Z,85
2018-01-08T03:38:37.732Z,84.81
2018-01-08T03:39:18.290Z,84.86
2018-01-08T03:39:58.866Z,84.68
2018-01-08T03:40:39.432Z,84.53
2018-01-08T03:41:19.996Z,84.68
2018-01-08T03:42:00.584Z,84.53
2018-01-08T03:42:41.202Z,84.63
2018-01-08T03:43:21.791Z,84.81
2018-01-08T03:44:02.386Z,84.63
2018-01-08T03:44:42.997Z,84.44
2018-01-08T03:45:23.548Z,84.44
2018-01-08T03:46:04.101Z,84.53
2018-01-08T03:46:44.657Z,84.34
2018-01-08T03:47:25.221Z,84.25
2018-01-08T03:48:05.778Z,84.06
2018-01-08T03:48:46.336Z,84.34
2018-01-08T03:49:26.893Z,83.68
2018-01-08T03:50:07.449Z,83.97
2018-01-08T03:50:48.029Z,84.16
2018-01-08T03:51:28.617Z,84.25
2018-01-08T03:52:09.195Z,84.25
2018-01-08T03:52:49.752Z,84.72
2018-01-08T03:53:30.318Z,84.72
2018-01-08T03:54:10.879Z,84.53
2018-01-08T03:54:51.500Z,84.06
2018-01-08T03:55:32.065Z,84.34
2018-01-08T03:56:12.641Z,84.25
2018-01-08T03:56:53.198Z,83.97
2018-01-08T03:57:33.773Z,83.87
2018-01-08T03:58:14.335Z,84.06
2018-01-08T03:58:54.884Z,83.87
2018-01-08T03:59:35.463Z,83.97
2018-01-08T04:00:16.026Z,83.78
2018-01-08T04:00:56.632Z,83.87
2018-01-08T04:01:37.188Z,84.06
2018-01-08T04:02:17.744Z,84.06
2018-01-08T04:02:58.306Z,84.06
2018-01-08T04:03:38.950Z,84.25
2018-01-08T04:04:19.454Z,83.78
2018-01-08T04:05:00.053Z,84.06
2018-01-08T04:05:40.618Z,83.92
2018-01-08T04:06:21.195Z,83.97
2018-01-08T04:07:01.764Z,83.97
2018-01-08T04:07:42.357Z,83.49
2018-01-08T04:08:22.950Z,83.97
2018-01-08T04:09:03.534Z,83.87
2018-01-08T04:09:44.094Z,83.78
2018-01-08T04:10:24.675Z,84.11
2018-01-08T04:11:05.262Z,84.16
2018-01-08T04:11:45.853Z,83.83
2018-01-08T04:12:26.418Z,83.87
2018-01-08T04:13:06.972Z,83.87
2018-01-08T04:13:47.542Z,83.87
2018-01-08T04:14:28.126Z,84.06
2018-01-08T04:15:08.681Z,84.06
2018-01-08T04:15:49.259Z,83.97
2018-01-08T04:16:29.821Z,83.97
2018-01-08T04:17:10.395Z,83.78
2018-01-08T04:17:50.987Z,83.83
2018-01-08T04:18:31.555Z,83.3
2018-01-08T04:19:12.124Z,83.68
2018-01-08T04:19:52.717Z,83.97
2018-01-08T04:20:33.290Z,83.73
2018-01-08T04:21:13.849Z,83.54
2018-01-08T04:21:54.415Z,83.87
2018-01-08T04:22:34.986Z,83.64
2018-01-08T04:23:15.549Z,83.83
2018-01-08T04:23:56.124Z,83.64
2018-01-08T04:24:36.698Z,83.83
2018-01-08T04:25:17.263Z,83.54
2018-01-08T04:25:57.846Z,83.54
2018-01-08T04:26:38.417Z,84.01
2018-01-08T04:27:18.978Z,84.01
2018-01-08T04:27:59.557Z,83.45
2018-01-08T04:28:40.113Z,83.54
2018-01-08T04:29:20.682Z,83.54
2018-01-08T04:30:01.248Z,83.92
2018-01-08T04:30:41.813Z,84.11
2018-01-08T04:31:22.370Z,83.92
2018-01-08T04:32:02.924Z,83.83
2018-01-08T04:32:43.502Z,84.01
2018-01-08T04:33:24.087Z,84.11
2018-01-08T04:34:04.643Z,84.3
2018-01-08T04:34:45.217Z,84.3
2018-01-08T04:35:25.788Z,84.11
2018-01-08T04:36:06.358Z,83.54
2018-01-08T04:36:46.931Z,84.3
2018-01-08T04:37:27.491Z,84.2
2018-01-08T04:38:08.069Z,84.11
2018-01-08T04:38:48.680Z,84.11
2018-01-08T04:39:29.258Z,84.01
2018-01-08T04:40:09.838Z,84.01
2018-01-08T04:40:50.399Z,84.39
2018-01-08T04:41:30.971Z,84.2
2018-01-08T04:42:11.534Z,84.01
2018-01-08T04:42:52.100Z,84.2
2018-01-08T04:43:32.664Z,84.39
2018-01-08T04:44:13.218Z,84.2
2018-01-08T04:44:53.785Z,84.3
2018-01-08T04:45:34.337Z,84.01
2018-01-08T04:46:14.913Z,83.64
2018-01-08T04:46:55.487Z,84.01
2018-01-08T04:47:36.051Z,83.92
2018-01-08T04:48:16.638Z,84.01
2018-01-08T04:48:57.209Z,84.2
2018-01-08T04:49:37.773Z,84.01
2018-01-08T04:50:18.344Z,84.11
2018-01-08T04:50:58.908Z,83.54
2018-01-08T04:51:39.481Z,83.92
2018-01-08T04:52:20.055Z,83.26
2018-01-08T04:53:00.608Z,83.36
2018-01-08T04:53:41.178Z,83.17
2018-01-08T04:54:21.783Z,83.83
2018-01-08T04:55:02.339Z,83.26
2018-01-08T04:55:42.901Z,83.36
2018-01-08T04:56:23.485Z,83.36
2018-01-08T04:57:04.085Z,83.54
2018-01-08T04:57:44.653Z,83.26
2018-01-08T04:58:25.232Z,83.17
2018-01-08T04:59:05.786Z,83.17
2018-01-08T04:59:46.416Z,83.36
2018-01-08T05:00:26.955Z,83.45
2018-01-08T05:01:07.540Z,83.54
2018-01-08T05:01:48.136Z,83.54
2018-01-08T05:02:28.748Z,83.36
2018-01-08T05:03:09.305Z,83.36
2018-01-08T05:03:49.896Z,83.45
2018-01-08T05:04:30.476Z,83.36
2018-01-08T05:05:11.050Z,83.45
2018-01-08T05:05:51.623Z,83.54
2018-01-08T05:06:32.184Z,83.17
2018-01-08T05:07:12.782Z,83.36
2018-01-08T05:07:53.408Z,82.98
2018-01-08T05:08:33.949Z,82.88
2018-01-08T05:09:14.528Z,82.79
2018-01-08T05:09:55.106Z,82.88
2018-01-08T05:10:35.675Z,83.07
2018-01-08T05:11:16.254Z,82.5
2018-01-08T05:11:56.819Z,82.88
2018-01-08T05:12:37.390Z,82.88
2018-01-08T05:13:17.982Z,82.88
2018-01-08T05:13:58.562Z,83.07
2018-01-08T05:14:39.121Z,83.26
2018-01-08T05:15:19.692Z,83.45
2018-01-08T05:16:00.267Z,83.26
2018-01-08T05:16:40.835Z,83.45
2018-01-08T05:17:21.390Z,83.26
2018-01-08T05:18:01.946Z,83.26
2018-01-08T05:18:42.511Z,82.98
2018-01-08T05:19:23.077Z,82.88
2018-01-08T05:20:03.660Z,83.07
2018-01-08T05:20:44.239Z,83.17
2018-01-08T05:21:24.831Z,82.5
2018-01-08T05:22:05.394Z,82.69
2018-01-08T05:22:45.962Z,82.22
2018-01-08T05:23:26.526Z,82.69
2018-01-08T05:24:07.080Z,82.88
2018-01-08T05:24:47.658Z,82.69
2018-01-08T05:25:28.211Z,82.69
2018-01-08T05:26:11.550Z,82.6
2018-01-08T05:26:52.125Z,82.41
2018-01-08T05:27:32.685Z,82.5
2018-01-08T05:28:13.289Z,82.69
2018-01-08T05:28:53.871Z,83.07
2018-01-08T05:29:34.458Z,83.17
2018-01-08T05:30:15.024Z,83.17
2018-01-08T05:30:55.582Z,83.07
2018-01-08T05:31:36.146Z,82.98
2018-01-08T05:32:16.709Z,82.79
2018-01-08T05:32:57.244Z,82.88
2018-01-08T05:33:37.836Z,83.07
2018-01-08T05:34:18.399Z,82.69
2018-01-08T05:34:58.953Z,82.5
2018-01-08T05:35:39.549Z,82.79
2018-01-08T05:36:20.128Z,82.41
2018-01-08T05:37:00.697Z,82.12
2018-01-08T05:37:41.260Z,82.12
2018-01-08T05:38:21.829Z,82.03
2018-01-08T05:39:02.407Z,82.03
2018-01-08T05:39:42.979Z,82.03
2018-01-08T05:40:23.535Z,82.22
2018-01-08T05:41:04.109Z,82.03
2018-01-08T05:41:44.676Z,82.12
2018-01-08T05:42:25.242Z,82.69
2018-01-08T05:43:05.791Z,83.26
2018-01-08T05:43:46.352Z,82.88
2018-01-08T05:44:26.914Z,82.98
2018-01-08T05:45:07.476Z,83.07
2018-01-08T05:45:48.031Z,83.07
2018-01-08T05:46:28.589Z,82.69
2018-01-08T05:47:09.165Z,82.6
2018-01-08T05:47:49.736Z,82.41
2018-01-08T05:48:30.348Z,82.69
2018-01-08T05:49:10.918Z,82.6
2018-01-08T05:49:51.482Z,82.6
2018-01-08T05:50:32.044Z,83.17
2018-01-08T05:51:12.644Z,83.17
2018-01-08T05:51:53.193Z,83.17
2018-01-08T05:52:33.751Z,82.6
2018-01-08T05:53:14.325Z,83.17
2018-01-08T05:53:54.900Z,83.17
2018-01-08T05:54:35.473Z,82.69
2018-01-08T05:55:16.048Z,82.12
2018-01-08T05:55:58.265Z,82.03
2018-01-08T05:56:38.822Z,82.12
2018-01-08T05:57:19.404Z,82.03
2018-01-08T05:57:59.965Z,82.5
2018-01-08T05:58:40.542Z,82.03
2018-01-08T05:59:21.097Z,81.84
2018-01-08T06:00:01.651Z,82.31
2018-01-08T06:00:42.205Z,82.41
2018-01-08T06:01:22.780Z,82.12
2018-01-08T06:02:03.349Z,82.03
2018-01-08T06:02:43.948Z,82.31
2018-01-08T06:03:24.539Z,82.12
2018-01-08T06:04:05.105Z,81.93
2018-01-08T06:04:45.663Z,82.22
2018-01-08T06:05:26.227Z,82.5
2018-01-08T06:06:06.812Z,82.5
2018-01-08T06:06:47.370Z,82.41
2018-01-08T06:07:28.000Z,82.03
2018-01-08T06:08:08.513Z,82.5
2018-01-08T06:08:49.094Z,81.74
2018-01-08T06:09:29.657Z,82.03
2018-01-08T06:10:10.235Z,81.65
2018-01-08T06:10:50.853Z,82.03
2018-01-08T06:11:31.376Z,82.03
2018-01-08T06:12:11.940Z,81.93
2018-01-08T06:12:52.509Z,82.03
2018-01-08T06:13:33.108Z,82.12
2018-01-08T06:14:13.687Z,81.93
2018-01-08T06:14:54.299Z,82.22
2018-01-08T06:15:34.859Z,81.74
2018-01-08T06:16:15.431Z,81.65
2018-01-08T06:16:56.178Z,82.12
2018-01-08T06:17:36.746Z,82.22
2018-01-08T06:18:17.314Z,81.74
2018-01-08T06:18:57.901Z,82.5
2018-01-08T06:19:38.469Z,82.12
2018-01-08T06:20:19.026Z,81.56
2018-01-08T06:20:59.607Z,81.65
2018-01-08T06:21:40.164Z,82.03
2018-01-08T06:22:20.796Z,82.22
2018-01-08T06:23:01.436Z,82.22
2018-01-08T06:23:42.011Z,81.65
2018-01-08T06:24:22.568Z,81.56
2018-01-08T06:25:03.126Z,81.65
2018-01-08T06:25:43.694Z,82.12
2018-01-08T06:26:24.276Z,82.03
2018-01-08T06:27:04.849Z,82.12
2018-01-08T06:27:45.411Z,82.22
2018-01-08T06:28:25.972Z,81.74
2018-01-08T06:29:06.552Z,82.22
2018-01-08T06:29:47.108Z,82.03
2018-01-08T06:30:27.657Z,82.12
2018-01-08T06:31:08.241Z,82.69
2018-01-08T06:31:48.797Z,82.69
2018-01-08T06:32:29.429Z,82.41
2018-01-08T06:33:10.104Z,82.22
2018-01-08T06:33:50.821Z,82.22
2018-01-08T06:34:31.389Z,82.41
2018-01-08T06:35:11.960Z,81.84
2018-01-08T06:35:52.531Z,82.41
2018-01-08T06:36:33.107Z,82.31
2018-01-08T06:37:13.712Z,82.5
2018-01-08T06:37:54.328Z,82.41
2018-01-08T06:38:34.922Z,82.31
2018-01-08T06:39:15.501Z,82.31
2018-01-08T06:39:56.096Z,82.12
2018-01-08T06:40:36.636Z,82.03
2018-01-08T06:41:17.224Z,81.65
2018-01-08T06:41:57.776Z,82.41
2018-01-08T06:42:38.332Z,82.6
2018-01-08T06:43:18.926Z,82.22
2018-01-08T06:43:59.503Z,81.84
2018-01-08T06:44:40.068Z,82.69
2018-01-08T06:45:20.633Z,83.07
2018-01-08T06:46:01.202Z,82.79
2018-01-08T06:46:41.766Z,82.98
2018-01-08T06:47:22.374Z,82.69
2018-01-08T06:48:02.972Z,82.03
2018-01-08T06:48:43.533Z,82.41
2018-01-08T06:49:24.158Z,82.5
2018-01-08T06:50:04.722Z,87.51
2018-01-08T06:50:45.337Z,94.08
2018-01-08T06:51:25.949Z,98.05
2018-01-08T06:52:06.651Z,98.43
2018-01-08T06:52:47.238Z,99.43
2018-01-08T06:53:27.904Z,98.77
2018-01-08T06:54:08.530Z,94.89
2018-01-08T06:54:49.106Z,90.82
2018-01-08T06:55:29.660Z,87.23
2018-01-08T06:56:10.291Z,84.01
2018-01-08T06:56:50.841Z,81.83
2018-01-08T06:57:31.410Z,80.6
2018-01-08T06:58:12.001Z,78.71
2018-01-08T06:58:52.601Z,78.52
2018-01-08T06:59:33.163Z,78.86
2018-01-08T07:00:13.726Z,78.67
2018-01-08T07:00:54.312Z,78.39
2018-01-08T07:01:34.903Z,78.39
2018-01-08T07:02:15.483Z,77.91
2018-01-08T07:02:56.072Z,78.67
2018-01-08T07:03:36.652Z,78.48
2018-01-08T07:04:17.270Z,78.48
2018-01-08T07:04:57.867Z,78.76
2018-01-08T07:05:38.436Z,78.95
2018-01-08T07:06:19.017Z,79.24
2018-01-08T07:06:59.582Z,79.33
2018-01-08T07:07:40.149Z,79.19
2018-01-08T07:08:20.714Z,79.1
2018-01-08T07:09:01.299Z,79.57
2018-01-08T07:09:41.872Z,79.76
2018-01-08T07:10:22.437Z,79.95
2018-01-08T07:11:03.026Z,80.33
2018-01-08T07:11:43.580Z,80.24
2018-01-08T07:12:24.148Z,79.76
2018-01-08T07:13:04.721Z,80.71
2018-01-08T07:13:45.304Z,80.71
2018-01-08T07:14:25.916Z,80.62
2018-01-08T07:15:06.472Z,80.43
2018-01-08T07:15:47.040Z,81.18
2018-01-08T07:16:27.776Z,81.18
2018-01-08T07:17:08.341Z,81.09
2018-01-08T07:17:48.897Z,81.18
2018-01-08T07:18:29.463Z,81.93
2018-01-08T07:19:10.035Z,81.74
2018-01-08T07:19:50.595Z,81.65
2018-01-08T07:20:31.166Z,81.46
2018-01-08T07:21:12.449Z,81.93
2018-01-08T07:23:05.039Z,82.22
2018-01-08T07:23:45.615Z,81.93
2018-01-08T07:24:26.222Z,81.84
2018-01-08T07:25:06.782Z,82.03
2018-01-08T07:25:47.395Z,81.46
2018-01-08T07:26:27.968Z,81.56
2018-01-08T07:27:08.527Z,81.74
2018-01-08T07:27:49.081Z,81.56
2018-01-08T07:28:29.635Z,81.46
2018-01-08T07:29:10.190Z,81.37
2018-01-08T07:29:50.763Z,81.84
2018-01-08T07:30:31.332Z,81.84
2018-01-08T07:31:11.898Z,81.56
2018-01-08T07:31:52.474Z,81.18
2018-01-08T07:32:33.030Z,81.09
2018-01-08T07:33:13.604Z,81.09
2018-01-08T07:33:54.222Z,81.18
2018-01-08T07:34:34.776Z,81.18
2018-01-08T07:35:15.331Z,81.56
2018-01-08T07:35:55.941Z,81.46
2018-01-08T07:36:36.509Z,81.93
2018-01-08T07:37:17.091Z,81.74
2018-01-08T07:37:57.754Z,81.56
2018-01-08T07:38:38.324Z,81.93
2018-01-08T07:39:18.873Z,82.03
2018-01-08T07:39:59.452Z,81.65
2018-01-08T07:40:40.013Z,82.22
2018-01-08T07:41:20.601Z,82.22
2018-01-08T07:42:01.150Z,82.22
2018-01-08T07:42:41.696Z,82.03
2018-01-08T07:43:22.250Z,81.93
2018-01-08T07:44:02.807Z,82.22
2018-01-08T07:44:43.383Z,82.12
2018-01-08T07:45:23.963Z,81.93
2018-01-08T07:46:04.568Z,82.03
2018-01-08T07:46:45.124Z,81.84
2018-01-08T07:47:25.684Z,82.12
2018-01-08T07:48:06.247Z,81.84
2018-01-08T07:48:46.812Z,82.12
2018-01-08T07:49:27.409Z,82.12
2018-01-08T07:50:07.968Z,82.03
2018-01-08T07:50:48.578Z,81.74
2018-01-08T07:51:29.134Z,81.84
2018-01-08T07:52:09.723Z,82.5
2018-01-08T07:52:50.298Z,81.84
2018-01-08T07:53:30.855Z,81.74
2018-01-08T07:54:11.414Z,81.56
2018-01-08T07:54:51.986Z,82.03
2018-01-08T07:55:32.548Z,81.74
2018-01-08T07:56:13.106Z,82.12
2018-01-08T07:56:53.653Z,82.03
2018-01-08T07:57:34.205Z,82.03
2018-01-08T07:58:14.788Z,82.12
2018-01-08T07:58:55.362Z,81.93
2018-01-08T07:59:35.911Z,82.12
2018-01-08T08:00:16.474Z,81.84
2018-01-08T08:00:57.060Z,81.84
2018-01-08T08:01:37.618Z,82.03
2018-01-08T08:02:18.187Z,81.93
2018-01-08T08:02:58.760Z,82.12
2018-01-08T08:03:39.326Z,82.12
2018-01-08T08:04:19.870Z,82.5
2018-01-08T08:05:00.422Z,82.12
2018-01-08T08:05:40.978Z,81.74
2018-01-08T08:06:21.540Z,81.65
2018-01-08T08:07:02.115Z,81.65
2018-01-08T08:07:42.678Z,81.74
2018-01-08T08:08:23.243Z,82.12
2018-01-08T08:09:03.819Z,82.31
2018-01-08T08:09:44.436Z,82.03
2018-01-08T08:10:24.983Z,82.22
2018-01-08T08:11:05.566Z,81.74
2018-01-08T08:11:46.135Z,82.5
2018-01-08T08:12:26.717Z,82.31
2018-01-08T08:13:07.276Z,82.6
2018-01-08T08:13:47.843Z,82.31
2018-01-08T08:14:28.436Z,82.03
2018-01-08T08:15:08.991Z,82.03
2018-01-08T08:15:49.570Z,82.03
2018-01-08T08:16:30.145Z,82.5
2018-01-08T08:17:10.698Z,82.22
2018-01-08T08:17:51.254Z,82.41
2018-01-08T08:18:31.826Z,82.12
2018-01-08T08:19:12.401Z,82.22
2018-01-08T08:19:52.963Z,82.41
2018-01-08T08:20:33.541Z,82.12
2018-01-08T08:21:14.107Z,81.93
2018-01-08T08:21:54.671Z,82.5
2018-01-08T08:22:35.209Z,82.6
2018-01-08T08:23:15.760Z,82.12
2018-01-08T08:23:56.322Z,82.03
2018-01-08T08:24:36.887Z,82.12
2018-01-08T08:25:17.444Z,81.56
2018-01-08T08:25:58.012Z,81.56
2018-01-08T08:26:38.591Z,81.84
2018-01-08T08:27:19.142Z,81.84
2018-01-08T08:27:59.704Z,81.74
2018-01-08T08:28:40.265Z,82.03
2018-01-08T08:29:20.825Z,81.65
2018-01-08T08:30:01.379Z,81.56
2018-01-08T08:30:41.992Z,81.46
2018-01-08T08:31:22.573Z,82.12
2018-01-08T08:32:03.131Z,81.74
2018-01-08T08:32:43.728Z,81.74
2018-01-08T08:33:24.299Z,81.65
2018-01-08T08:34:04.852Z,81.46
2018-01-08T08:34:45.414Z,81.37
2018-01-08T08:35:25.973Z,81.46
2018-01-08T08:36:06.545Z,80.99
2018-01-08T08:36:47.098Z,81.37
2018-01-08T08:37:27.691Z,81.46
2018-01-08T08:38:08.259Z,81.46
2018-01-08T08:38:48.872Z,81.27
2018-01-08T08:39:29.442Z,81.09
2018-01-08T08:40:10.040Z,81.56
2018-01-08T08:40:50.607Z,81.37
2018-01-08T08:41:31.162Z,80.8
2018-01-08T08:42:11.719Z,80.71
2018-01-08T08:42:52.287Z,80.71
2018-01-08T08:43:32.858Z,80.62
2018-01-08T08:44:13.472Z,80.71
2018-01-08T08:44:54.044Z,80.43
2018-01-08T08:45:34.606Z,80.24
2018-01-08T08:46:15.164Z,80.05